sensor_id;sensor_type;location;lat;lon;timestamp;temperature;humidity
16767;DHT22;8501;49.926;8.404;2022-07-24T00:01:33;25.40;99.90
16767;DHT22;8501;49.926;8.404;2022-07-24T00:03:58;25.40;99.90
16767;DHT22;8501;49.926;8.404;2022-07-24T00:06:24;25.30;99.90
16767;DHT22;8501;49.926;8.404;2022-07-24T00:08:49;25.20;99.90
16767;DHT22;8501;49.926;8.404;2022-07-24T00:11:15;25.20;99.90
16767;DHT22;8501;49.926;8.404;2022-07-24T00:13:41;25.20;99.90
16767;DHT22;8501;49.926;8.404;2022-07-24T00:16:07;25.20;99.90
16767;DHT22;8501;49.926;8.404;2022-07-24T00:18:32;25.20;99.90
16767;DHT22;8501;49.926;8.404;2022-07-24T00:20:58;25.20;99.90
16767;DHT22;8501;49.926;8.404;2022-07-24T00:23:24;25.20;99.90
16767;DHT22;8501;49.926;8.404;2022-07-24T00:25:50;25.20;99.90
16767;DHT22;8501;49.926;8.404;2022-07-24T00:28:16;25.10;99.90
16767;DHT22;8501;49.926;8.404;2022-07-24T00:30:42;25.10;99.90
16767;DHT22;8501;49.926;8.404;2022-07-24T00:33:07;25.10;99.90
16767;DHT22;8501;49.926;8.404;2022-07-24T00:35:33;25.00;99.90
16767;DHT22;8501;49.926;8.404;2022-07-24T00:40:47;25.00;99.90
16767;DHT22;8501;49.926;8.404;2022-07-24T00:43:12;25.00;99.90
16767;DHT22;8501;49.926;8.404;2022-07-24T00:45:38;25.10;99.90
16767;DHT22;8501;49.926;8.404;2022-07-24T00:48:04;25.00;99.90
16767;DHT22;8501;49.926;8.404;2022-07-24T00:50:30;25.00;99.90
16767;DHT22;8501;49.926;8.404;2022-07-24T00:52:56;24.90;99.90
16767;DHT22;8501;49.926;8.404;2022-07-24T00:55:23;24.90;99.90
16767;DHT22;8501;49.926;8.404;2022-07-24T00:57:48;25.00;99.90
16767;DHT22;8501;49.926;8.404;2022-07-24T01:00:16;24.90;99.90
16767;DHT22;8501;49.926;8.404;2022-07-24T01:02:42;24.70;99.90
16767;DHT22;8501;49.926;8.404;2022-07-24T01:05:09;24.80;99.90
16767;DHT22;8501;49.926;8.404;2022-07-24T01:07:35;24.80;99.90
16767;DHT22;8501;49.926;8.404;2022-07-24T01:10:01;24.80;99.90
16767;DHT22;8501;49.926;8.404;2022-07-24T01:12:26;24.70;99.90
16767;DHT22;8501;49.926;8.404;2022-07-24T01:14:52;24.60;99.90
16767;DHT22;8501;49.926;8.404;2022-07-24T01:17:18;24.60;99.90
16767;DHT22;8501;49.926;8.404;2022-07-24T01:19:44;24.60;99.90
16767;DHT22;8501;49.926;8.404;2022-07-24T01:22:10;24.60;99.90
16767;DHT22;8501;49.926;8.404;2022-07-24T01:24:36;24.60;99.90
16767;DHT22;8501;49.926;8.404;2022-07-24T01:27:01;24.60;99.90
16767;DHT22;8501;49.926;8.404;2022-07-24T01:29:27;24.60;99.90
16767;DHT22;8501;49.926;8.404;2022-07-24T01:31:52;24.60;99.90
16767;DHT22;8501;49.926;8.404;2022-07-24T01:34:18;24.60;99.90
16767;DHT22;8501;49.926;8.404;2022-07-24T01:36:43;24.50;99.90
16767;DHT22;8501;49.926;8.404;2022-07-24T01:39:09;24.50;99.90
16767;DHT22;8501;49.926;8.404;2022-07-24T01:41:35;24.50;99.90
16767;DHT22;8501;49.926;8.404;2022-07-24T01:44:00;24.50;99.90
16767;DHT22;8501;49.926;8.404;2022-07-24T01:46:26;24.40;99.90
16767;DHT22;8501;49.926;8.404;2022-07-24T01:48:52;24.40;99.90
16767;DHT22;8501;49.926;8.404;2022-07-24T01:51:18;24.40;99.90
16767;DHT22;8501;49.926;8.404;2022-07-24T01:53:43;24.30;99.90
16767;DHT22;8501;49.926;8.404;2022-07-24T01:56:09;24.40;99.90
16767;DHT22;8501;49.926;8.404;2022-07-24T01:58:34;24.30;99.90
16767;DHT22;8501;49.926;8.404;2022-07-24T02:01:00;24.30;99.90
16767;DHT22;8501;49.926;8.404;2022-07-24T02:03:25;24.20;99.90
16767;DHT22;8501;49.926;8.404;2022-07-24T02:05:51;24.20;99.90
16767;DHT22;8501;49.926;8.404;2022-07-24T02:08:16;24.20;99.90
16767;DHT22;8501;49.926;8.404;2022-07-24T02:10:42;24.20;99.90
16767;DHT22;8501;49.926;8.404;2022-07-24T02:13:08;24.10;99.90
16767;DHT22;8501;49.926;8.404;2022-07-24T02:15:33;24.10;99.90
16767;DHT22;8501;49.926;8.404;2022-07-24T02:18:00;24.10;99.90
16767;DHT22;8501;49.926;8.404;2022-07-24T02:20:26;24.10;99.90
16767;DHT22;8501;49.926;8.404;2022-07-24T02:22:52;24.10;99.90
16767;DHT22;8501;49.926;8.404;2022-07-24T02:25:18;24.10;99.90
16767;DHT22;8501;49.926;8.404;2022-07-24T02:27:44;24.10;99.90
16767;DHT22;8501;49.926;8.404;2022-07-24T02:30:14;24.10;99.90
16767;DHT22;8501;49.926;8.404;2022-07-24T02:35:15;24.10;99.90
16767;DHT22;8501;49.926;8.404;2022-07-24T02:37:43;24.00;99.90
16767;DHT22;8501;49.926;8.404;2022-07-24T02:40:10;24.00;99.90
16767;DHT22;8501;49.926;8.404;2022-07-24T02:42:36;24.00;99.90
16767;DHT22;8501;49.926;8.404;2022-07-24T02:45:04;24.00;99.90
16767;DHT22;8501;49.926;8.404;2022-07-24T02:49:57;23.90;99.90
16767;DHT22;8501;49.926;8.404;2022-07-24T02:52:23;23.90;99.90
16767;DHT22;8501;49.926;8.404;2022-07-24T02:54:48;23.80;99.90
16767;DHT22;8501;49.926;8.404;2022-07-24T02:57:14;23.80;99.90
16767;DHT22;8501;49.926;8.404;2022-07-24T02:59:40;23.80;99.90
16767;DHT22;8501;49.926;8.404;2022-07-24T03:02:05;23.80;99.90
16767;DHT22;8501;49.926;8.404;2022-07-24T03:04:31;23.80;99.90
16767;DHT22;8501;49.926;8.404;2022-07-24T03:06:57;23.80;99.90
16767;DHT22;8501;49.926;8.404;2022-07-24T03:09:22;23.70;99.90
16767;DHT22;8501;49.926;8.404;2022-07-24T03:11:48;23.70;99.90
16767;DHT22;8501;49.926;8.404;2022-07-24T03:14:14;23.70;99.90
16767;DHT22;8501;49.926;8.404;2022-07-24T03:16:39;23.70;99.90
16767;DHT22;8501;49.926;8.404;2022-07-24T03:19:05;23.70;99.90
16767;DHT22;8501;49.926;8.404;2022-07-24T03:21:30;23.70;99.90
16767;DHT22;8501;49.926;8.404;2022-07-24T03:23:56;23.70;99.90
16767;DHT22;8501;49.926;8.404;2022-07-24T03:26:22;23.60;99.90
16767;DHT22;8501;49.926;8.404;2022-07-24T03:28:47;23.60;99.90
16767;DHT22;8501;49.926;8.404;2022-07-24T03:31:13;23.60;99.90
16767;DHT22;8501;49.926;8.404;2022-07-24T03:33:38;23.60;99.90
16767;DHT22;8501;49.926;8.404;2022-07-24T03:36:04;23.50;99.90
16767;DHT22;8501;49.926;8.404;2022-07-24T03:38:29;23.50;99.90
16767;DHT22;8501;49.926;8.404;2022-07-24T03:40:55;23.50;99.90
16767;DHT22;8501;49.926;8.404;2022-07-24T03:43:21;23.50;99.90
16767;DHT22;8501;49.926;8.404;2022-07-24T03:45:46;23.30;99.90
16767;DHT22;8501;49.926;8.404;2022-07-24T03:48:12;23.20;99.90
16767;DHT22;8501;49.926;8.404;2022-07-24T03:50:38;23.30;99.90
16767;DHT22;8501;49.926;8.404;2022-07-24T03:53:03;23.20;99.90
16767;DHT22;8501;49.926;8.404;2022-07-24T03:55:31;23.20;99.90
16767;DHT22;8501;49.926;8.404;2022-07-24T03:57:57;23.10;99.90
16767;DHT22;8501;49.926;8.404;2022-07-24T04:00:22;23.10;99.90
16767;DHT22;8501;49.926;8.404;2022-07-24T04:02:48;23.00;99.90
16767;DHT22;8501;49.926;8.404;2022-07-24T04:05:13;23.00;99.90
16767;DHT22;8501;49.926;8.404;2022-07-24T04:07:39;23.00;99.90
16767;DHT22;8501;49.926;8.404;2022-07-24T04:10:06;23.00;99.90
16767;DHT22;8501;49.926;8.404;2022-07-24T04:12:32;23.00;99.90
16767;DHT22;8501;49.926;8.404;2022-07-24T04:14:58;22.90;99.90
16767;DHT22;8501;49.926;8.404;2022-07-24T04:17:24;22.90;99.90
16767;DHT22;8501;49.926;8.404;2022-07-24T04:19:50;23.00;99.90
16767;DHT22;8501;49.926;8.404;2022-07-24T04:22:16;23.00;99.90
16767;DHT22;8501;49.926;8.404;2022-07-24T04:24:41;22.90;99.90
16767;DHT22;8501;49.926;8.404;2022-07-24T04:27:07;22.90;99.90
16767;DHT22;8501;49.926;8.404;2022-07-24T04:29:33;22.90;99.90
16767;DHT22;8501;49.926;8.404;2022-07-24T04:31:58;22.90;99.90
16767;DHT22;8501;49.926;8.404;2022-07-24T04:34:24;22.80;99.90
16767;DHT22;8501;49.926;8.404;2022-07-24T04:36:50;22.80;99.90
16767;DHT22;8501;49.926;8.404;2022-07-24T04:39:15;22.80;99.90
16767;DHT22;8501;49.926;8.404;2022-07-24T04:41:41;22.80;99.90
16767;DHT22;8501;49.926;8.404;2022-07-24T04:44:06;22.90;99.90
16767;DHT22;8501;49.926;8.404;2022-07-24T04:46:32;22.90;99.90
16767;DHT22;8501;49.926;8.404;2022-07-24T04:48:57;22.90;99.90
16767;DHT22;8501;49.926;8.404;2022-07-24T04:51:23;22.90;99.90
16767;DHT22;8501;49.926;8.404;2022-07-24T04:53:49;22.90;99.90
16767;DHT22;8501;49.926;8.404;2022-07-24T04:56:18;22.90;99.90
16767;DHT22;8501;49.926;8.404;2022-07-24T04:58:44;22.90;99.90
16767;DHT22;8501;49.926;8.404;2022-07-24T05:01:10;22.90;99.90
16767;DHT22;8501;49.926;8.404;2022-07-24T05:03:35;22.90;99.90
16767;DHT22;8501;49.926;8.404;2022-07-24T05:06:01;23.00;99.90
16767;DHT22;8501;49.926;8.404;2022-07-24T05:08:26;23.00;99.90
16767;DHT22;8501;49.926;8.404;2022-07-24T05:10:52;23.00;99.90
16767;DHT22;8501;49.926;8.404;2022-07-24T05:13:17;22.90;99.90
16767;DHT22;8501;49.926;8.404;2022-07-24T05:15:43;23.00;99.90
16767;DHT22;8501;49.926;8.404;2022-07-24T05:18:08;23.00;99.90
16767;DHT22;8501;49.926;8.404;2022-07-24T05:20:34;23.00;99.90
16767;DHT22;8501;49.926;8.404;2022-07-24T05:22:59;23.00;99.90
16767;DHT22;8501;49.926;8.404;2022-07-24T05:25:25;23.00;99.90
16767;DHT22;8501;49.926;8.404;2022-07-24T05:27:51;23.00;99.90
16767;DHT22;8501;49.926;8.404;2022-07-24T05:30:16;23.10;99.90
16767;DHT22;8501;49.926;8.404;2022-07-24T05:32:42;23.10;99.90
16767;DHT22;8501;49.926;8.404;2022-07-24T05:35:08;23.10;99.90
16767;DHT22;8501;49.926;8.404;2022-07-24T05:37:33;23.20;99.90
16767;DHT22;8501;49.926;8.404;2022-07-24T05:39:59;23.10;99.90
16767;DHT22;8501;49.926;8.404;2022-07-24T05:42:31;23.10;99.90
16767;DHT22;8501;49.926;8.404;2022-07-24T05:44:58;23.10;99.90
16767;DHT22;8501;49.926;8.404;2022-07-24T05:47:24;23.10;99.90
16767;DHT22;8501;49.926;8.404;2022-07-24T05:49:49;23.20;99.90
16767;DHT22;8501;49.926;8.404;2022-07-24T05:52:15;23.20;99.90
16767;DHT22;8501;49.926;8.404;2022-07-24T05:54:40;23.20;99.90
16767;DHT22;8501;49.926;8.404;2022-07-24T05:57:06;23.20;99.90
16767;DHT22;8501;49.926;8.404;2022-07-24T05:59:31;23.20;99.90
16767;DHT22;8501;49.926;8.404;2022-07-24T06:01:57;23.20;99.90
16767;DHT22;8501;49.926;8.404;2022-07-24T06:04:25;23.30;99.90
16767;DHT22;8501;49.926;8.404;2022-07-24T06:06:50;23.30;99.90
16767;DHT22;8501;49.926;8.404;2022-07-24T06:09:16;23.40;99.90
16767;DHT22;8501;49.926;8.404;2022-07-24T06:11:41;23.40;99.90
16767;DHT22;8501;49.926;8.404;2022-07-24T06:14:07;23.40;99.90
16767;DHT22;8501;49.926;8.404;2022-07-24T06:16:33;23.40;99.90
16767;DHT22;8501;49.926;8.404;2022-07-24T06:18:58;23.40;99.90
16767;DHT22;8501;49.926;8.404;2022-07-24T06:21:24;23.50;99.90
16767;DHT22;8501;49.926;8.404;2022-07-24T06:23:59;23.50;99.90
16767;DHT22;8501;49.926;8.404;2022-07-24T06:26:25;23.60;99.90
16767;DHT22;8501;49.926;8.404;2022-07-24T06:28:51;23.60;99.90
16767;DHT22;8501;49.926;8.404;2022-07-24T06:31:16;23.60;99.90
16767;DHT22;8501;49.926;8.404;2022-07-24T06:33:42;23.60;99.90
16767;DHT22;8501;49.926;8.404;2022-07-24T06:36:08;23.60;99.90
16767;DHT22;8501;49.926;8.404;2022-07-24T06:41:01;23.70;99.90
16767;DHT22;8501;49.926;8.404;2022-07-24T06:43:27;23.80;99.90
16767;DHT22;8501;49.926;8.404;2022-07-24T06:45:52;23.80;99.90
16767;DHT22;8501;49.926;8.404;2022-07-24T06:48:18;23.90;99.90
16767;DHT22;8501;49.926;8.404;2022-07-24T06:50:43;23.90;99.90
16767;DHT22;8501;49.926;8.404;2022-07-24T06:53:09;23.90;99.90
16767;DHT22;8501;49.926;8.404;2022-07-24T06:55:34;23.90;99.90
16767;DHT22;8501;49.926;8.404;2022-07-24T07:00:40;24.00;99.90
16767;DHT22;8501;49.926;8.404;2022-07-24T07:03:06;24.10;99.90
16767;DHT22;8501;49.926;8.404;2022-07-24T07:05:31;24.10;99.90
16767;DHT22;8501;49.926;8.404;2022-07-24T07:07:57;24.10;99.90
16767;DHT22;8501;49.926;8.404;2022-07-24T07:10:23;24.20;99.90
16767;DHT22;8501;49.926;8.404;2022-07-24T07:12:49;24.30;99.90
16767;DHT22;8501;49.926;8.404;2022-07-24T07:15:14;24.30;99.90
16767;DHT22;8501;49.926;8.404;2022-07-24T07:17:41;24.30;99.90
16767;DHT22;8501;49.926;8.404;2022-07-24T07:20:08;24.40;99.90
16767;DHT22;8501;49.926;8.404;2022-07-24T07:22:34;24.50;99.90
16767;DHT22;8501;49.926;8.404;2022-07-24T07:25:00;24.40;99.90
16767;DHT22;8501;49.926;8.404;2022-07-24T07:27:26;24.40;99.90
16767;DHT22;8501;49.926;8.404;2022-07-24T07:29:51;24.50;99.90
16767;DHT22;8501;49.926;8.404;2022-07-24T07:32:18;24.50;99.90
16767;DHT22;8501;49.926;8.404;2022-07-24T07:34:46;24.50;99.90
16767;DHT22;8501;49.926;8.404;2022-07-24T07:37:11;24.50;99.90
16767;DHT22;8501;49.926;8.404;2022-07-24T07:39:38;24.60;99.90
16767;DHT22;8501;49.926;8.404;2022-07-24T07:42:04;24.60;99.90
16767;DHT22;8501;49.926;8.404;2022-07-24T07:44:29;24.60;99.90
16767;DHT22;8501;49.926;8.404;2022-07-24T07:46:55;24.70;99.90
16767;DHT22;8501;49.926;8.404;2022-07-24T07:49:21;24.80;99.90
16767;DHT22;8501;49.926;8.404;2022-07-24T07:51:46;24.80;99.90
16767;DHT22;8501;49.926;8.404;2022-07-24T07:54:13;24.80;99.90
16767;DHT22;8501;49.926;8.404;2022-07-24T07:56:40;24.90;99.90
16767;DHT22;8501;49.926;8.404;2022-07-24T07:59:06;25.00;99.90
16767;DHT22;8501;49.926;8.404;2022-07-24T08:01:31;25.00;99.90
16767;DHT22;8501;49.926;8.404;2022-07-24T08:03:57;25.00;99.90
16767;DHT22;8501;49.926;8.404;2022-07-24T08:06:22;25.00;99.90
16767;DHT22;8501;49.926;8.404;2022-07-24T08:08:48;25.00;99.90
16767;DHT22;8501;49.926;8.404;2022-07-24T08:11:13;25.10;99.90
16767;DHT22;8501;49.926;8.404;2022-07-24T08:16:23;25.30;99.90
16767;DHT22;8501;49.926;8.404;2022-07-24T08:18:48;25.30;99.90
16767;DHT22;8501;49.926;8.404;2022-07-24T08:21:14;25.30;99.90
16767;DHT22;8501;49.926;8.404;2022-07-24T08:23:41;25.40;99.90
16767;DHT22;8501;49.926;8.404;2022-07-24T08:26:06;25.60;99.90
16767;DHT22;8501;49.926;8.404;2022-07-24T08:28:32;25.90;99.90
16767;DHT22;8501;49.926;8.404;2022-07-24T08:30:58;26.10;99.90
16767;DHT22;8501;49.926;8.404;2022-07-24T08:33:25;26.20;99.90
16767;DHT22;8501;49.926;8.404;2022-07-24T08:35:50;26.30;99.90
16767;DHT22;8501;49.926;8.404;2022-07-24T08:38:16;26.40;99.90
16767;DHT22;8501;49.926;8.404;2022-07-24T08:40:42;26.40;99.90
16767;DHT22;8501;49.926;8.404;2022-07-24T08:43:08;26.40;99.90
16767;DHT22;8501;49.926;8.404;2022-07-24T08:45:41;26.40;99.90
16767;DHT22;8501;49.926;8.404;2022-07-24T08:48:09;26.40;99.90
16767;DHT22;8501;49.926;8.404;2022-07-24T08:50:36;26.40;99.90
16767;DHT22;8501;49.926;8.404;2022-07-24T08:53:04;26.40;99.90
16767;DHT22;8501;49.926;8.404;2022-07-24T08:55:30;26.50;99.90
16767;DHT22;8501;49.926;8.404;2022-07-24T08:58:00;26.50;99.90
16767;DHT22;8501;49.926;8.404;2022-07-24T09:00:28;26.50;99.90
16767;DHT22;8501;49.926;8.404;2022-07-24T09:02:54;26.50;99.90
16767;DHT22;8501;49.926;8.404;2022-07-24T09:05:19;26.60;99.90
16767;DHT22;8501;49.926;8.404;2022-07-24T09:07:45;26.60;99.90
16767;DHT22;8501;49.926;8.404;2022-07-24T09:10:13;26.70;99.90
16767;DHT22;8501;49.926;8.404;2022-07-24T09:12:44;26.70;99.90
16767;DHT22;8501;49.926;8.404;2022-07-24T09:17:53;26.90;99.90
16767;DHT22;8501;49.926;8.404;2022-07-24T09:20:20;27.00;99.90
16767;DHT22;8501;49.926;8.404;2022-07-24T09:22:47;27.10;99.90
16767;DHT22;8501;49.926;8.404;2022-07-24T09:25:24;27.10;99.90
16767;DHT22;8501;49.926;8.404;2022-07-24T09:27:58;27.20;99.90
16767;DHT22;8501;49.926;8.404;2022-07-24T09:30:34;27.30;99.90
16767;DHT22;8501;49.926;8.404;2022-07-24T09:35:33;27.30;99.90
16767;DHT22;8501;49.926;8.404;2022-07-24T09:38:00;27.30;99.90
16767;DHT22;8501;49.926;8.404;2022-07-24T09:40:32;27.30;99.90
16767;DHT22;8501;49.926;8.404;2022-07-24T09:43:29;27.40;99.90
16767;DHT22;8501;49.926;8.404;2022-07-24T09:48:56;27.50;99.90
16767;DHT22;8501;49.926;8.404;2022-07-24T09:51:25;27.60;99.90
16767;DHT22;8501;49.926;8.404;2022-07-24T09:53:57;27.70;99.90
16767;DHT22;8501;49.926;8.404;2022-07-24T09:56:24;27.70;99.90
16767;DHT22;8501;49.926;8.404;2022-07-24T09:58:52;27.70;99.90
16767;DHT22;8501;49.926;8.404;2022-07-24T10:01:24;27.70;99.90
16767;DHT22;8501;49.926;8.404;2022-07-24T10:06:43;27.90;99.90
16767;DHT22;8501;49.926;8.404;2022-07-24T10:09:12;28.00;99.90
16767;DHT22;8501;49.926;8.404;2022-07-24T10:11:38;28.10;99.90
16767;DHT22;8501;49.926;8.404;2022-07-24T10:14:07;28.10;99.90
16767;DHT22;8501;49.926;8.404;2022-07-24T10:16:39;28.10;99.90
16767;DHT22;8501;49.926;8.404;2022-07-24T10:19:08;28.30;99.90
16767;DHT22;8501;49.926;8.404;2022-07-24T10:21:48;28.40;99.90
16767;DHT22;8501;49.926;8.404;2022-07-24T10:27:15;28.30;99.90
16767;DHT22;8501;49.926;8.404;2022-07-24T10:29:47;28.40;99.90
16767;DHT22;8501;49.926;8.404;2022-07-24T10:35:04;28.50;99.90
16767;DHT22;8501;49.926;8.404;2022-07-24T10:37:32;28.50;99.90
16767;DHT22;8501;49.926;8.404;2022-07-24T10:40:04;28.60;99.90
16767;DHT22;8501;49.926;8.404;2022-07-24T10:42:32;28.60;99.90
16767;DHT22;8501;49.926;8.404;2022-07-24T10:45:18;28.60;99.90
16767;DHT22;8501;49.926;8.404;2022-07-24T10:47:45;28.70;99.90
16767;DHT22;8501;49.926;8.404;2022-07-24T10:50:12;28.70;99.90
16767;DHT22;8501;49.926;8.404;2022-07-24T10:52:39;28.70;99.90
16767;DHT22;8501;49.926;8.404;2022-07-24T10:55:30;28.80;99.90
16767;DHT22;8501;49.926;8.404;2022-07-24T11:00:34;29.00;99.90
16767;DHT22;8501;49.926;8.404;2022-07-24T11:11:14;29.10;99.90
16767;DHT22;8501;49.926;8.404;2022-07-24T11:13:44;29.20;99.90
16767;DHT22;8501;49.926;8.404;2022-07-24T11:16:19;29.30;99.90
16767;DHT22;8501;49.926;8.404;2022-07-24T11:21:39;29.30;99.90
16767;DHT22;8501;49.926;8.404;2022-07-24T11:27:21;29.40;99.90
16767;DHT22;8501;49.926;8.404;2022-07-24T11:29:41;29.50;99.90
16767;DHT22;8501;49.926;8.404;2022-07-24T11:32:09;29.60;99.70
16767;DHT22;8501;49.926;8.404;2022-07-24T11:34:37;29.60;99.90
16767;DHT22;8501;49.926;8.404;2022-07-24T11:37:04;29.70;99.40
16767;DHT22;8501;49.926;8.404;2022-07-24T11:39:34;29.70;99.60
16767;DHT22;8501;49.926;8.404;2022-07-24T11:42:03;29.80;99.30
16767;DHT22;8501;49.926;8.404;2022-07-24T11:44:34;29.90;99.20
16767;DHT22;8501;49.926;8.404;2022-07-24T11:47:11;29.90;99.80
16767;DHT22;8501;49.926;8.404;2022-07-24T11:49:47;29.90;99.50
16767;DHT22;8501;49.926;8.404;2022-07-24T11:52:22;30.00;99.90
16767;DHT22;8501;49.926;8.404;2022-07-24T11:54:52;30.00;98.40
16767;DHT22;8501;49.926;8.404;2022-07-24T11:57:24;30.00;98.80
16767;DHT22;8501;49.926;8.404;2022-07-24T11:59:50;30.10;99.30
16767;DHT22;8501;49.926;8.404;2022-07-24T12:02:17;30.10;98.30
16767;DHT22;8501;49.926;8.404;2022-07-24T12:04:44;30.10;97.10
16767;DHT22;8501;49.926;8.404;2022-07-24T12:07:18;30.10;97.60
16767;DHT22;8501;49.926;8.404;2022-07-24T12:09:45;30.20;96.80
16767;DHT22;8501;49.926;8.404;2022-07-24T12:12:28;30.20;97.30
16767;DHT22;8501;49.926;8.404;2022-07-24T12:17:27;30.20;95.50
16767;DHT22;8501;49.926;8.404;2022-07-24T12:19:55;30.20;96.00
16767;DHT22;8501;49.926;8.404;2022-07-24T12:22:22;30.30;95.90
16767;DHT22;8501;49.926;8.404;2022-07-24T12:24:49;30.40;96.40
16767;DHT22;8501;49.926;8.404;2022-07-24T12:27:35;30.50;96.20
16767;DHT22;8501;49.926;8.404;2022-07-24T12:30:02;30.50;95.90
16767;DHT22;8501;49.926;8.404;2022-07-24T12:32:28;30.60;95.60
16767;DHT22;8501;49.926;8.404;2022-07-24T12:37:24;30.60;95.20
16767;DHT22;8501;49.926;8.404;2022-07-24T12:39:52;30.50;94.70
16767;DHT22;8501;49.926;8.404;2022-07-24T12:42:29;30.60;95.30
16767;DHT22;8501;49.926;8.404;2022-07-24T12:45:06;30.70;94.70
16767;DHT22;8501;49.926;8.404;2022-07-24T12:47:33;30.80;95.10
16767;DHT22;8501;49.926;8.404;2022-07-24T12:52:50;30.90;94.80
16767;DHT22;8501;49.926;8.404;2022-07-24T12:55:20;30.80;94.00
16767;DHT22;8501;49.926;8.404;2022-07-24T12:57:46;30.90;94.10
16767;DHT22;8501;49.926;8.404;2022-07-24T13:00:12;30.90;93.70
16767;DHT22;8501;49.926;8.404;2022-07-24T13:02:38;31.10;93.70
16767;DHT22;8501;49.926;8.404;2022-07-24T13:05:06;31.20;92.70
16767;DHT22;8501;49.926;8.404;2022-07-24T13:07:32;31.20;93.20
16767;DHT22;8501;49.926;8.404;2022-07-24T13:09:58;31.20;93.40
16767;DHT22;8501;49.926;8.404;2022-07-24T13:12:24;31.20;92.90
16767;DHT22;8501;49.926;8.404;2022-07-24T13:14:50;31.20;92.60
16767;DHT22;8501;49.926;8.404;2022-07-24T13:17:16;31.20;92.40
16767;DHT22;8501;49.926;8.404;2022-07-24T13:19:45;31.20;92.80
16767;DHT22;8501;49.926;8.404;2022-07-24T13:22:11;31.20;92.70
16767;DHT22;8501;49.926;8.404;2022-07-24T13:24:39;31.00;92.90
16767;DHT22;8501;49.926;8.404;2022-07-24T13:27:06;31.30;93.50
16767;DHT22;8501;49.926;8.404;2022-07-24T13:29:32;31.50;92.40
16767;DHT22;8501;49.926;8.404;2022-07-24T13:32:00;31.60;92.50
16767;DHT22;8501;49.926;8.404;2022-07-24T13:34:25;31.60;92.20
16767;DHT22;8501;49.926;8.404;2022-07-24T13:36:52;31.60;92.10
16767;DHT22;8501;49.926;8.404;2022-07-24T13:39:18;31.70;91.90
16767;DHT22;8501;49.926;8.404;2022-07-24T13:41:44;31.80;91.50
16767;DHT22;8501;49.926;8.404;2022-07-24T13:46:55;32.00;90.10
16767;DHT22;8501;49.926;8.404;2022-07-24T13:49:21;32.10;90.40
16767;DHT22;8501;49.926;8.404;2022-07-24T13:51:46;32.30;89.90
16767;DHT22;8501;49.926;8.404;2022-07-24T13:54:13;32.40;89.60
16767;DHT22;8501;49.926;8.404;2022-07-24T13:59:15;32.60;87.30
16767;DHT22;8501;49.926;8.404;2022-07-24T14:01:41;32.60;87.30
16767;DHT22;8501;49.926;8.404;2022-07-24T14:04:07;32.60;89.90
16767;DHT22;8501;49.926;8.404;2022-07-24T14:06:34;32.80;89.40
16767;DHT22;8501;49.926;8.404;2022-07-24T14:09:04;32.90;87.20
16767;DHT22;8501;49.926;8.404;2022-07-24T14:11:35;33.00;85.90
16767;DHT22;8501;49.926;8.404;2022-07-24T14:14:01;33.10;85.50
16767;DHT22;8501;49.926;8.404;2022-07-24T14:16:27;33.20;85.70
16767;DHT22;8501;49.926;8.404;2022-07-24T14:18:52;33.40;86.10
16767;DHT22;8501;49.926;8.404;2022-07-24T14:21:20;33.30;83.40
16767;DHT22;8501;49.926;8.404;2022-07-24T14:23:52;33.40;83.20
16767;DHT22;8501;49.926;8.404;2022-07-24T14:26:20;33.40;81.30
16767;DHT22;8501;49.926;8.404;2022-07-24T14:28:46;33.30;81.90
16767;DHT22;8501;49.926;8.404;2022-07-24T14:31:12;33.40;82.80
16767;DHT22;8501;49.926;8.404;2022-07-24T14:33:38;33.50;82.30
16767;DHT22;8501;49.926;8.404;2022-07-24T14:36:04;33.80;83.30
16767;DHT22;8501;49.926;8.404;2022-07-24T14:38:30;33.90;80.70
16767;DHT22;8501;49.926;8.404;2022-07-24T14:40:56;33.90;79.50
16767;DHT22;8501;49.926;8.404;2022-07-24T14:43:21;34.20;80.40
16767;DHT22;8501;49.926;8.404;2022-07-24T14:45:47;34.30;81.40
16767;DHT22;8501;49.926;8.404;2022-07-24T14:48:12;34.50;81.40
16767;DHT22;8501;49.926;8.404;2022-07-24T14:50:38;34.70;81.00
16767;DHT22;8501;49.926;8.404;2022-07-24T14:53:04;34.90;78.50
16767;DHT22;8501;49.926;8.404;2022-07-24T14:55:29;35.00;79.30
16767;DHT22;8501;49.926;8.404;2022-07-24T15:00:33;35.20;76.60
16767;DHT22;8501;49.926;8.404;2022-07-24T15:02:59;35.10;76.10
16767;DHT22;8501;49.926;8.404;2022-07-24T15:05:24;35.50;77.80
16767;DHT22;8501;49.926;8.404;2022-07-24T15:07:50;35.80;75.00
16767;DHT22;8501;49.926;8.404;2022-07-24T15:10:16;36.00;76.20
16767;DHT22;8501;49.926;8.404;2022-07-24T15:12:41;36.10;74.60
16767;DHT22;8501;49.926;8.404;2022-07-24T15:15:07;36.30;74.50
16767;DHT22;8501;49.926;8.404;2022-07-24T15:17:33;36.30;72.70
16767;DHT22;8501;49.926;8.404;2022-07-24T15:19:59;36.40;70.40
16767;DHT22;8501;49.926;8.404;2022-07-24T15:22:24;36.40;70.30
16767;DHT22;8501;49.926;8.404;2022-07-24T15:24:50;36.50;69.90
16767;DHT22;8501;49.926;8.404;2022-07-24T15:27:15;36.50;68.70
16767;DHT22;8501;49.926;8.404;2022-07-24T15:29:41;36.50;69.30
16767;DHT22;8501;49.926;8.404;2022-07-24T15:32:06;36.50;70.80
16767;DHT22;8501;49.926;8.404;2022-07-24T15:34:32;36.50;69.10
16767;DHT22;8501;49.926;8.404;2022-07-24T15:36:58;36.40;68.40
16767;DHT22;8501;49.926;8.404;2022-07-24T15:39:23;36.40;68.50
16767;DHT22;8501;49.926;8.404;2022-07-24T15:41:49;36.40;68.90
16767;DHT22;8501;49.926;8.404;2022-07-24T15:44:15;36.30;68.10
16767;DHT22;8501;49.926;8.404;2022-07-24T15:46:40;36.10;67.60
16767;DHT22;8501;49.926;8.404;2022-07-24T15:49:06;36.00;67.80
16767;DHT22;8501;49.926;8.404;2022-07-24T15:51:33;35.90;68.10
16767;DHT22;8501;49.926;8.404;2022-07-24T15:53:59;35.70;68.50
16767;DHT22;8501;49.926;8.404;2022-07-24T15:56:25;35.50;68.10
16767;DHT22;8501;49.926;8.404;2022-07-24T15:58:50;35.30;68.20
16767;DHT22;8501;49.926;8.404;2022-07-24T16:01:16;35.00;68.20
16767;DHT22;8501;49.926;8.404;2022-07-24T16:03:41;34.70;69.90
16767;DHT22;8501;49.926;8.404;2022-07-24T16:06:07;34.50;69.60
16767;DHT22;8501;49.926;8.404;2022-07-24T16:08:32;34.30;71.10
16767;DHT22;8501;49.926;8.404;2022-07-24T16:10:58;34.20;71.20
16767;DHT22;8501;49.926;8.404;2022-07-24T16:13:23;33.90;72.00
16767;DHT22;8501;49.926;8.404;2022-07-24T16:15:49;33.70;70.70
16767;DHT22;8501;49.926;8.404;2022-07-24T16:18:15;33.70;71.90
16767;DHT22;8501;49.926;8.404;2022-07-24T16:20:40;33.70;71.00
16767;DHT22;8501;49.926;8.404;2022-07-24T16:23:06;33.70;71.40
16767;DHT22;8501;49.926;8.404;2022-07-24T16:25:32;33.60;72.00
16767;DHT22;8501;49.926;8.404;2022-07-24T16:27:57;33.70;73.30
16767;DHT22;8501;49.926;8.404;2022-07-24T16:30:23;33.60;72.40
16767;DHT22;8501;49.926;8.404;2022-07-24T16:32:49;33.50;73.00
16767;DHT22;8501;49.926;8.404;2022-07-24T16:35:15;33.40;73.30
16767;DHT22;8501;49.926;8.404;2022-07-24T16:37:40;33.40;73.80
16767;DHT22;8501;49.926;8.404;2022-07-24T16:40:06;33.40;73.90
16767;DHT22;8501;49.926;8.404;2022-07-24T16:42:32;33.30;74.30
16767;DHT22;8501;49.926;8.404;2022-07-24T16:44:58;33.30;75.00
16767;DHT22;8501;49.926;8.404;2022-07-24T16:47:23;33.30;76.10